罗盘
风向 的 风向 190° Ameland Airport Ballum 8/26
风: 24 kt, 6 beaufort

7 kt

23 kt
改变
0 1.000 2.000 3.000 4.000 5.000
没有观察到明显的云
METAR EHMA 301825Z AUTO 19024KT 9999 NSC 14/10 Q1004

METAR Ameland Airport Ballum - EHAL

Ameland Airport Ballum是Ameland,荷兰中的小机场。 该机场有一条跑道: 8/26. 该领域的国际民航组织标志是EHAL.

这份报告是针对2022年9月30日 20:25, 当地时间在AWG-1进行的。

机场观察

风向为190°,速度为24 kt。

可见度为10 km 或者更多。

有没有观察到明显的云。 没有观察到天花板。

温度和风寒是14 °C。 露点为10 °C,相对湿度为77%。 海平面上的气压为1004 hPa (QNH)。

白天

今天,太阳从07:37升起,在19:17降落。 这适用于Ameland Airport Ballum,世界夏令时可能有所不同。 当地时间与世界标准时间之间的时差为+2 小时。 夏令时目前正在进行中。

公司介绍

在这个机场,你可以找到跳伞中心。 这个机场上的公司有Vliegles.nl 和 Rondvluchten Ameland。

体会

你可以在这个机场与经验丰富的教练进行双人跳伞。 这些跳伞包括自由落体。 在Ameland Airport Ballum进行跳伞的费用是€ 209。 在这里预订Skydive Ameland

跑道

Id 标题 侧风 逆风 侧风 %
8/26 084°-264° 23 kt 7 kt 96 %

逆风成分最大的方向会被突出显示,并用于横风计算。 这并不一定意味着这个方向在使用。

乌云

- NSC 没有观察到明显的云

温度 & 天气

温度 14 °C
露点 10 °C
相对湿度 77%
Kp-index 0 (0-9)

白天

日出
07:36
中午
13:26
日落
19:16

小工具

你想在你的网站上有一个关于Ameland Airport Ballum的当前航空天气(METAR)的小部件吗?

</> 显示HTML代码

我们和第三方通过cookies跟踪您在我们网站上的上网行为。如果您继续,我们认为您同意我们的cookie政策。 了解更多